KMOT

Minot International Airport

Minot, North Dakota, USA
METAR KMOT 231454Z 09009KT 10SM CLR 21/14 A2994 RMK AO2 SLP133 60001 T02110144 55004
Observed Flight Rules
May-23 @ 14:54 UTC (16 minutes ago) Visual Flight Rules
Wind Visibility Clouds
90° at 9 knots 10 miles
  • Clear skies
Temperatures Readings
Current 21°C / 70°F
Dewpoint 14°C / 57°F
Humidity 64%
Altimeter 29.94" Hg
Pressure 1013.3 hPa
Elevation 519
METAR KMOT 231454Z 09009KT 10SM CLR 21/14 A2994 RMK AO2 SLP133 60001 T02110144 55004
Observed Flight Rules
May-23 @ 14:54 UTC
(16 minutes ago)
VFR
Wind Visibility
90° at 9 knots 10 miles
Clouds
  • Clear skies
Temperature Dewpoint
21°C / 70°F 14°C / 57°F
Humidity Altimeter Pressure
64% 29.94" Hg 1013.3 hPa